METAR Data
IDs: Format: Raw Decoded Include TAF

Data at: 0931 UTC 13 Aug 2022

RJBB 130900Z 22011KT 9999 FEW020 BKN/// 31/26 Q1006 NOSIG